Brighton, MI

3:44 PM EDT on September 25, 2016 (GMT -0400)
Lake of the Pines - Proper Install | | Change Station

Elev 938 ft 42.53 °N, 83.74 °W | Updated 1 second ago

Clear
Clear
73.0 °F
Feels Like 77 °F
N
2.9
Wind Variable Wind from South
Gusts 4.9 mph

Today
High -- | Low -- °F
--% Chance of Precip.
Yesterday
High -- | Low -- °F
Precip. -- in
Pressure 30.11 in
Visibility 10.0 miles
Clouds Clear
Heat Index 77 °F
Dew Point 48 °F
Humidity 41%
Rainfall 0.00 in
Snow Depth Not available.
7:26 AM 7:26 PM
Waning Crescent, 25% visible
METAR KOZW 251935Z AUTO 14010KT 10SM CLR 22/12 A3011 RMK AO2 T02200118
Pressure 30.11 in
Visibility 10.0 miles
Clouds Clear
Heat Index 77 °F
Dew Point 48 °F
Humidity 41%
Rainfall 0.00 in
Snow Depth Not available.
7:26 AM 7:26 PM
Waning Crescent, 25% visible
METAR KOZW 251935Z AUTO 14010KT 10SM CLR 22/12 A3011 RMK AO2 T02200118

10-Day Weather Forecast

Almanac

Astronomy

Sep. 25, 2016 Rise Set
Actual Time
Civil Twilight
Nautical Twilight
Astronomical Twilight
Moon
Length of Visible Light
Length of Day
Tomorrow will be .
, % of the Moon is Illuminated

Today's Extremes

State Highs State Lows

Community

WunderPhotos

Upload Photos

1,941,708 photos uploaded!

WunderBlog® & News

Nearby

Air Quality

  Air Quality AQ Index Pollutant
Not available.

Snow Depth

Station Depth Elevation

Earthquake Activity

City Distance Mag. Time & Date
Minimum magnitude displayed is 2.5.

Coastal Water Temperatures

Place Temperature

Stations

Nearby Weather Stations

Station Location Temp. Windchill Dew Point Humidity Wind Precip. Elev Updated Type
                   

Watches & Warnings

There are currently no watches in effect.